Pontiac, MI

1:09 AM EST on December 05, 2016 (GMT -0500)
North Lake Angelus Road | | Change Station

Elev 984 ft 42.70 °N, 83.33 °W | Updated 3 minutes ago

Overcast
Overcast
34.0 °F
Feels Like 34 °F
N
1.2
Wind Variable Wind from West
Gusts 4.3 mph

Today
High -- | Low -- °F
--% Chance of Precip.
Yesterday
High -- | Low -- °F
Precip. -- in
Pressure 29.82 in
Visibility 5.0 miles
Clouds Overcast 500 ft
Windchill 34 °F
Dew Point 32 °F
Humidity 93%
Rainfall 0.00 in
Snow Depth Not available.
7:48 AM 4:59 PM
Waxing Crescent, 29% visible
METAR KPTK 050553Z AUTO 26003KT 5SM BR OVC005 01/M01 A2979 RMK AO2 SNE50 SLP096 P0000 60012 T00061011 10022 20000 56006 $
Pressure 29.82 in
Visibility 5.0 miles
Clouds Overcast 500 ft
Windchill 34 °F
Dew Point 32 °F
Humidity 93%
Rainfall 0.00 in
Snow Depth Not available.
7:48 AM 4:59 PM
Waxing Crescent, 29% visible
METAR KPTK 050553Z AUTO 26003KT 5SM BR OVC005 01/M01 A2979 RMK AO2 SNE50 SLP096 P0000 60012 T00061011 10022 20000 56006 $

10-Day Weather Forecast

Almanac

Astronomy

Dec. 05, 2016 Rise Set
Actual Time
Civil Twilight
Nautical Twilight
Astronomical Twilight
Moon
Length of Visible Light
Length of Day
Tomorrow will be .
, % of the Moon is Illuminated

Today's Extremes

State Highs State Lows

Community

WunderPhotos

Upload Photos

1,955,771 photos uploaded!

WunderBlog® & News

Nearby

Air Quality

  Air Quality AQ Index Pollutant
Not available.

Snow Depth

Station Depth Elevation

Earthquake Activity

City Distance Mag. Time & Date
Minimum magnitude displayed is 2.5.

Coastal Water Temperatures

Place Temperature

Stations

Nearby Weather Stations

Station Location Temp. Windchill Dew Point Humidity Wind Precip. Elev Updated Type
                   

Watches & Warnings

There are currently no watches in effect.